sensor_id;sensor_type;location;lat;lon;timestamp;P1;durP1;ratioP1;P2;durP2;ratioP2
2474;SDS011;1248;48.694;10.160;2023-07-22T00:01:00;7.00;;;3.90;;
2474;SDS011;1248;48.694;10.160;2023-07-22T00:03:27;4.60;;;3.13;;
2474;SDS011;1248;48.694;10.160;2023-07-22T00:06:03;5.60;;;3.43;;
2474;SDS011;1248;48.694;10.160;2023-07-22T00:08:32;5.00;;;3.50;;
2474;SDS011;1248;48.694;10.160;2023-07-22T00:10:59;3.10;;;2.80;;
2474;SDS011;1248;48.694;10.160;2023-07-22T00:13:27;4.13;;;2.80;;
2474;SDS011;1248;48.694;10.160;2023-07-22T00:15:54;4.80;;;3.30;;
2474;SDS011;1248;48.694;10.160;2023-07-22T00:18:22;4.87;;;3.47;;
2474;SDS011;1248;48.694;10.160;2023-07-22T00:20:49;3.90;;;3.43;;
2474;SDS011;1248;48.694;10.160;2023-07-22T00:23:16;3.83;;;3.40;;
2474;SDS011;1248;48.694;10.160;2023-07-22T00:25:44;3.97;;;3.50;;
2474;SDS011;1248;48.694;10.160;2023-07-22T00:28:11;4.73;;;2.87;;
2474;SDS011;1248;48.694;10.160;2023-07-22T00:30:39;3.40;;;3.10;;
2474;SDS011;1248;48.694;10.160;2023-07-22T00:33:07;3.83;;;3.23;;
2474;SDS011;1248;48.694;10.160;2023-07-22T00:35:34;4.20;;;3.50;;
2474;SDS011;1248;48.694;10.160;2023-07-22T00:38:02;4.83;;;4.17;;
2474;SDS011;1248;48.694;10.160;2023-07-22T00:40:29;4.93;;;2.73;;
2474;SDS011;1248;48.694;10.160;2023-07-22T00:42:57;4.27;;;3.80;;
2474;SDS011;1248;48.694;10.160;2023-07-22T00:45:25;3.70;;;3.13;;
2474;SDS011;1248;48.694;10.160;2023-07-22T00:47:53;4.23;;;3.43;;
2474;SDS011;1248;48.694;10.160;2023-07-22T00:50:20;3.50;;;3.20;;
2474;SDS011;1248;48.694;10.160;2023-07-22T00:52:48;4.70;;;3.43;;
2474;SDS011;1248;48.694;10.160;2023-07-22T00:55:15;3.70;;;2.97;;
2474;SDS011;1248;48.694;10.160;2023-07-22T00:57:42;5.00;;;3.17;;
2474;SDS011;1248;48.694;10.160;2023-07-22T01:00:10;3.57;;;3.20;;
2474;SDS011;1248;48.694;10.160;2023-07-22T01:02:38;3.37;;;2.80;;
2474;SDS011;1248;48.694;10.160;2023-07-22T01:05:06;5.23;;;4.33;;
2474;SDS011;1248;48.694;10.160;2023-07-22T01:07:35;7.33;;;3.90;;
2474;SDS011;1248;48.694;10.160;2023-07-22T01:10:04;5.50;;;3.90;;
2474;SDS011;1248;48.694;10.160;2023-07-22T01:12:32;4.57;;;3.73;;
2474;SDS011;1248;48.694;10.160;2023-07-22T01:14:59;4.53;;;3.30;;
2474;SDS011;1248;48.694;10.160;2023-07-22T01:17:29;6.10;;;3.20;;
2474;SDS011;1248;48.694;10.160;2023-07-22T01:19:56;4.87;;;3.67;;
2474;SDS011;1248;48.694;10.160;2023-07-22T01:22:24;5.23;;;3.53;;
2474;SDS011;1248;48.694;10.160;2023-07-22T01:24:53;3.77;;;3.47;;
2474;SDS011;1248;48.694;10.160;2023-07-22T01:27:20;6.30;;;3.37;;
2474;SDS011;1248;48.694;10.160;2023-07-22T01:29:50;4.30;;;3.57;;
2474;SDS011;1248;48.694;10.160;2023-07-22T01:32:17;4.87;;;2.97;;
2474;SDS011;1248;48.694;10.160;2023-07-22T01:34:45;3.87;;;2.83;;
2474;SDS011;1248;48.694;10.160;2023-07-22T01:37:12;7.80;;;3.73;;
2474;SDS011;1248;48.694;10.160;2023-07-22T01:39:40;7.00;;;3.90;;
2474;SDS011;1248;48.694;10.160;2023-07-22T01:42:08;5.03;;;3.70;;
2474;SDS011;1248;48.694;10.160;2023-07-22T01:44:35;6.67;;;4.00;;
2474;SDS011;1248;48.694;10.160;2023-07-22T01:47:03;4.63;;;3.10;;
2474;SDS011;1248;48.694;10.160;2023-07-22T01:49:30;4.20;;;3.07;;
2474;SDS011;1248;48.694;10.160;2023-07-22T01:51:57;5.30;;;3.13;;
2474;SDS011;1248;48.694;10.160;2023-07-22T01:54:24;4.50;;;3.70;;
2474;SDS011;1248;48.694;10.160;2023-07-22T01:56:51;6.90;;;3.70;;
2474;SDS011;1248;48.694;10.160;2023-07-22T01:59:19;5.30;;;3.60;;
2474;SDS011;1248;48.694;10.160;2023-07-22T02:01:47;5.23;;;3.60;;
2474;SDS011;1248;48.694;10.160;2023-07-22T02:04:14;4.73;;;3.13;;
2474;SDS011;1248;48.694;10.160;2023-07-22T02:06:41;4.60;;;3.33;;
2474;SDS011;1248;48.694;10.160;2023-07-22T02:09:08;3.90;;;3.50;;
2474;SDS011;1248;48.694;10.160;2023-07-22T02:11:35;4.70;;;3.57;;
2474;SDS011;1248;48.694;10.160;2023-07-22T02:14:02;6.70;;;4.10;;
2474;SDS011;1248;48.694;10.160;2023-07-22T02:16:33;4.97;;;2.90;;
2474;SDS011;1248;48.694;10.160;2023-07-22T02:19:01;6.57;;;3.40;;
2474;SDS011;1248;48.694;10.160;2023-07-22T02:21:28;4.47;;;3.40;;
2474;SDS011;1248;48.694;10.160;2023-07-22T02:23:55;4.23;;;3.80;;
2474;SDS011;1248;48.694;10.160;2023-07-22T02:26:23;4.33;;;3.33;;
2474;SDS011;1248;48.694;10.160;2023-07-22T02:28:50;3.53;;;3.17;;
2474;SDS011;1248;48.694;10.160;2023-07-22T02:31:17;5.00;;;3.80;;
2474;SDS011;1248;48.694;10.160;2023-07-22T02:33:45;4.30;;;3.57;;
2474;SDS011;1248;48.694;10.160;2023-07-22T02:36:12;7.23;;;3.50;;
2474;SDS011;1248;48.694;10.160;2023-07-22T02:38:39;10.07;;;4.03;;
2474;SDS011;1248;48.694;10.160;2023-07-22T02:41:06;5.13;;;3.50;;
2474;SDS011;1248;48.694;10.160;2023-07-22T02:43:33;5.60;;;3.80;;
2474;SDS011;1248;48.694;10.160;2023-07-22T02:46:02;4.90;;;3.43;;
2474;SDS011;1248;48.694;10.160;2023-07-22T02:48:29;3.77;;;3.40;;
2474;SDS011;1248;48.694;10.160;2023-07-22T02:51:02;5.60;;;3.60;;
2474;SDS011;1248;48.694;10.160;2023-07-22T02:53:30;4.40;;;3.27;;
2474;SDS011;1248;48.694;10.160;2023-07-22T02:55:57;5.33;;;3.63;;
2474;SDS011;1248;48.694;10.160;2023-07-22T02:58:24;4.20;;;3.40;;
2474;SDS011;1248;48.694;10.160;2023-07-22T03:00:51;4.13;;;3.40;;
2474;SDS011;1248;48.694;10.160;2023-07-22T03:03:18;4.57;;;3.30;;
2474;SDS011;1248;48.694;10.160;2023-07-22T03:05:45;5.40;;;3.70;;
2474;SDS011;1248;48.694;10.160;2023-07-22T03:08:15;4.20;;;3.63;;
2474;SDS011;1248;48.694;10.160;2023-07-22T03:10:44;9.00;;;3.67;;
2474;SDS011;1248;48.694;10.160;2023-07-22T03:13:14;3.23;;;2.93;;
2474;SDS011;1248;48.694;10.160;2023-07-22T03:15:41;3.80;;;3.20;;
2474;SDS011;1248;48.694;10.160;2023-07-22T03:18:08;5.97;;;3.43;;
2474;SDS011;1248;48.694;10.160;2023-07-22T03:20:36;7.23;;;3.40;;
2474;SDS011;1248;48.694;10.160;2023-07-22T03:23:03;6.07;;;4.37;;
2474;SDS011;1248;48.694;10.160;2023-07-22T03:25:32;4.67;;;3.73;;
2474;SDS011;1248;48.694;10.160;2023-07-22T03:27:59;4.07;;;3.20;;
2474;SDS011;1248;48.694;10.160;2023-07-22T03:30:29;4.70;;;3.37;;
2474;SDS011;1248;48.694;10.160;2023-07-22T03:32:56;5.20;;;3.03;;
2474;SDS011;1248;48.694;10.160;2023-07-22T03:35:24;4.10;;;3.33;;
2474;SDS011;1248;48.694;10.160;2023-07-22T03:37:51;3.30;;;2.90;;
2474;SDS011;1248;48.694;10.160;2023-07-22T03:40:18;4.07;;;3.40;;
2474;SDS011;1248;48.694;10.160;2023-07-22T03:42:47;4.03;;;3.63;;
2474;SDS011;1248;48.694;10.160;2023-07-22T03:45:15;4.80;;;3.30;;
2474;SDS011;1248;48.694;10.160;2023-07-22T03:47:43;4.87;;;3.60;;
2474;SDS011;1248;48.694;10.160;2023-07-22T03:50:11;5.90;;;3.60;;
2474;SDS011;1248;48.694;10.160;2023-07-22T03:52:38;3.80;;;3.20;;
2474;SDS011;1248;48.694;10.160;2023-07-22T03:55:05;4.27;;;3.40;;
2474;SDS011;1248;48.694;10.160;2023-07-22T03:57:32;5.00;;;3.30;;
2474;SDS011;1248;48.694;10.160;2023-07-22T04:00:01;6.10;;;3.47;;
2474;SDS011;1248;48.694;10.160;2023-07-22T04:02:29;9.20;;;3.80;;
2474;SDS011;1248;48.694;10.160;2023-07-22T04:04:56;3.57;;;3.27;;
2474;SDS011;1248;48.694;10.160;2023-07-22T04:07:23;5.43;;;3.60;;
2474;SDS011;1248;48.694;10.160;2023-07-22T04:09:50;4.60;;;3.30;;
2474;SDS011;1248;48.694;10.160;2023-07-22T04:12:17;5.97;;;3.70;;
2474;SDS011;1248;48.694;10.160;2023-07-22T04:14:44;3.80;;;3.20;;
2474;SDS011;1248;48.694;10.160;2023-07-22T04:17:13;5.50;;;3.00;;
2474;SDS011;1248;48.694;10.160;2023-07-22T04:19:41;4.90;;;3.80;;
2474;SDS011;1248;48.694;10.160;2023-07-22T04:22:08;4.87;;;3.60;;
2474;SDS011;1248;48.694;10.160;2023-07-22T04:24:36;6.30;;;3.90;;
2474;SDS011;1248;48.694;10.160;2023-07-22T04:27:03;5.57;;;3.60;;
2474;SDS011;1248;48.694;10.160;2023-07-22T04:29:30;4.07;;;3.70;;
2474;SDS011;1248;48.694;10.160;2023-07-22T04:31:58;5.30;;;3.70;;
2474;SDS011;1248;48.694;10.160;2023-07-22T04:34:29;5.23;;;3.40;;
2474;SDS011;1248;48.694;10.160;2023-07-22T04:36:56;4.37;;;3.40;;
2474;SDS011;1248;48.694;10.160;2023-07-22T04:39:23;3.27;;;2.97;;
2474;SDS011;1248;48.694;10.160;2023-07-22T04:41:51;7.00;;;3.07;;
2474;SDS011;1248;48.694;10.160;2023-07-22T04:44:18;3.93;;;3.47;;
2474;SDS011;1248;48.694;10.160;2023-07-22T04:46:45;4.43;;;3.33;;
2474;SDS011;1248;48.694;10.160;2023-07-22T04:49:13;4.30;;;3.23;;
2474;SDS011;1248;48.694;10.160;2023-07-22T04:51:45;6.30;;;3.37;;
2474;SDS011;1248;48.694;10.160;2023-07-22T04:54:12;5.60;;;3.90;;
2474;SDS011;1248;48.694;10.160;2023-07-22T04:56:40;3.90;;;3.50;;
2474;SDS011;1248;48.694;10.160;2023-07-22T04:59:07;7.13;;;3.20;;
2474;SDS011;1248;48.694;10.160;2023-07-22T05:01:34;3.33;;;3.00;;
2474;SDS011;1248;48.694;10.160;2023-07-22T05:04:02;3.10;;;2.80;;
2474;SDS011;1248;48.694;10.160;2023-07-22T05:06:30;4.10;;;3.30;;
2474;SDS011;1248;48.694;10.160;2023-07-22T05:08:58;6.10;;;3.40;;
2474;SDS011;1248;48.694;10.160;2023-07-22T05:11:26;3.50;;;3.20;;
2474;SDS011;1248;48.694;10.160;2023-07-22T05:13:54;4.70;;;3.33;;
2474;SDS011;1248;48.694;10.160;2023-07-22T05:16:21;3.20;;;2.90;;
2474;SDS011;1248;48.694;10.160;2023-07-22T05:18:49;8.33;;;3.40;;
2474;SDS011;1248;48.694;10.160;2023-07-22T05:21:16;3.70;;;3.30;;
2474;SDS011;1248;48.694;10.160;2023-07-22T05:23:43;4.83;;;3.20;;
2474;SDS011;1248;48.694;10.160;2023-07-22T05:26:11;6.13;;;3.70;;
2474;SDS011;1248;48.694;10.160;2023-07-22T05:28:38;5.90;;;3.70;;
2474;SDS011;1248;48.694;10.160;2023-07-22T05:31:05;4.10;;;3.57;;
2474;SDS011;1248;48.694;10.160;2023-07-22T05:33:33;4.10;;;3.30;;
2474;SDS011;1248;48.694;10.160;2023-07-22T05:36:00;6.20;;;3.50;;
2474;SDS011;1248;48.694;10.160;2023-07-22T05:38:27;4.20;;;3.23;;
2474;SDS011;1248;48.694;10.160;2023-07-22T05:40:54;6.37;;;3.70;;
2474;SDS011;1248;48.694;10.160;2023-07-22T05:43:22;3.50;;;2.73;;
2474;SDS011;1248;48.694;10.160;2023-07-22T05:45:50;5.90;;;3.60;;
2474;SDS011;1248;48.694;10.160;2023-07-22T05:48:17;3.70;;;3.20;;
2474;SDS011;1248;48.694;10.160;2023-07-22T05:50:44;6.87;;;3.00;;
2474;SDS011;1248;48.694;10.160;2023-07-22T05:53:11;3.03;;;2.77;;
2474;SDS011;1248;48.694;10.160;2023-07-22T05:55:38;4.93;;;3.03;;
2474;SDS011;1248;48.694;10.160;2023-07-22T05:58:05;5.63;;;3.50;;
2474;SDS011;1248;48.694;10.160;2023-07-22T06:00:35;6.47;;;3.13;;
2474;SDS011;1248;48.694;10.160;2023-07-22T06:03:03;4.10;;;2.70;;
2474;SDS011;1248;48.694;10.160;2023-07-22T06:05:30;3.53;;;3.23;;
2474;SDS011;1248;48.694;10.160;2023-07-22T06:07:57;4.80;;;2.93;;
2474;SDS011;1248;48.694;10.160;2023-07-22T06:10:24;4.80;;;3.00;;
2474;SDS011;1248;48.694;10.160;2023-07-22T06:12:51;3.90;;;3.43;;
2474;SDS011;1248;48.694;10.160;2023-07-22T06:15:18;3.93;;;3.57;;
2474;SDS011;1248;48.694;10.160;2023-07-22T06:17:47;5.20;;;3.10;;
2474;SDS011;1248;48.694;10.160;2023-07-22T06:20:14;4.43;;;2.87;;
2474;SDS011;1248;48.694;10.160;2023-07-22T06:22:41;3.77;;;3.47;;
2474;SDS011;1248;48.694;10.160;2023-07-22T06:25:09;4.20;;;3.13;;
2474;SDS011;1248;48.694;10.160;2023-07-22T06:27:36;4.60;;;2.97;;
2474;SDS011;1248;48.694;10.160;2023-07-22T06:30:04;3.30;;;3.00;;
2474;SDS011;1248;48.694;10.160;2023-07-22T06:32:33;5.40;;;3.40;;
2474;SDS011;1248;48.694;10.160;2023-07-22T06:35:02;4.27;;;3.63;;
2474;SDS011;1248;48.694;10.160;2023-07-22T06:37:30;3.90;;;2.80;;
2474;SDS011;1248;48.694;10.160;2023-07-22T06:39:57;3.40;;;2.97;;
2474;SDS011;1248;48.694;10.160;2023-07-22T06:42:24;4.47;;;3.43;;
2474;SDS011;1248;48.694;10.160;2023-07-22T06:44:52;4.90;;;2.97;;
2474;SDS011;1248;48.694;10.160;2023-07-22T06:47:19;5.97;;;3.17;;
2474;SDS011;1248;48.694;10.160;2023-07-22T06:49:46;3.57;;;2.60;;
2474;SDS011;1248;48.694;10.160;2023-07-22T06:52:14;9.70;;;4.03;;
2474;SDS011;1248;48.694;10.160;2023-07-22T06:54:41;7.03;;;3.00;;
2474;SDS011;1248;48.694;10.160;2023-07-22T06:57:08;4.33;;;2.60;;
2474;SDS011;1248;48.694;10.160;2023-07-22T06:59:35;6.23;;;3.27;;
2474;SDS011;1248;48.694;10.160;2023-07-22T07:02:03;3.90;;;2.63;;
2474;SDS011;1248;48.694;10.160;2023-07-22T07:04:31;4.90;;;3.33;;
2474;SDS011;1248;48.694;10.160;2023-07-22T07:06:58;10.10;;;3.10;;
2474;SDS011;1248;48.694;10.160;2023-07-22T07:09:27;4.13;;;3.10;;
2474;SDS011;1248;48.694;10.160;2023-07-22T07:11:54;4.23;;;3.30;;
2474;SDS011;1248;48.694;10.160;2023-07-22T07:14:22;7.77;;;3.13;;
2474;SDS011;1248;48.694;10.160;2023-07-22T07:16:50;3.33;;;2.97;;
2474;SDS011;1248;48.694;10.160;2023-07-22T07:19:17;3.87;;;3.03;;
2474;SDS011;1248;48.694;10.160;2023-07-22T07:21:44;2.80;;;1.90;;
2474;SDS011;1248;48.694;10.160;2023-07-22T07:24:11;8.90;;;3.17;;
2474;SDS011;1248;48.694;10.160;2023-07-22T07:26:39;4.60;;;2.80;;
2474;SDS011;1248;48.694;10.160;2023-07-22T07:29:06;4.60;;;2.20;;
2474;SDS011;1248;48.694;10.160;2023-07-22T07:31:34;4.53;;;2.40;;
2474;SDS011;1248;48.694;10.160;2023-07-22T07:34:01;6.33;;;2.63;;
2474;SDS011;1248;48.694;10.160;2023-07-22T07:36:28;5.97;;;2.63;;
2474;SDS011;1248;48.694;10.160;2023-07-22T07:38:55;4.97;;;2.83;;
2474;SDS011;1248;48.694;10.160;2023-07-22T07:41:22;3.60;;;2.90;;
2474;SDS011;1248;48.694;10.160;2023-07-22T07:43:50;6.10;;;2.90;;
2474;SDS011;1248;48.694;10.160;2023-07-22T07:46:18;3.10;;;2.70;;
2474;SDS011;1248;48.694;10.160;2023-07-22T07:48:48;6.07;;;2.27;;
2474;SDS011;1248;48.694;10.160;2023-07-22T07:51:16;3.63;;;2.53;;
2474;SDS011;1248;48.694;10.160;2023-07-22T07:53:44;3.50;;;2.63;;
2474;SDS011;1248;48.694;10.160;2023-07-22T07:56:12;4.63;;;2.70;;
2474;SDS011;1248;48.694;10.160;2023-07-22T07:58:40;3.93;;;2.67;;
2474;SDS011;1248;48.694;10.160;2023-07-22T08:01:08;2.47;;;2.13;;
2474;SDS011;1248;48.694;10.160;2023-07-22T08:03:35;4.23;;;2.00;;
2474;SDS011;1248;48.694;10.160;2023-07-22T08:06:03;3.33;;;2.17;;
2474;SDS011;1248;48.694;10.160;2023-07-22T08:08:32;6.07;;;2.40;;
2474;SDS011;1248;48.694;10.160;2023-07-22T08:10:59;3.20;;;1.93;;
2474;SDS011;1248;48.694;10.160;2023-07-22T08:13:27;7.67;;;2.00;;
2474;SDS011;1248;48.694;10.160;2023-07-22T08:15:56;5.30;;;2.03;;
2474;SDS011;1248;48.694;10.160;2023-07-22T08:18:25;2.23;;;1.93;;
2474;SDS011;1248;48.694;10.160;2023-07-22T08:20:52;4.50;;;2.03;;
2474;SDS011;1248;48.694;10.160;2023-07-22T08:23:19;6.70;;;2.00;;
2474;SDS011;1248;48.694;10.160;2023-07-22T08:25:47;2.93;;;2.00;;
2474;SDS011;1248;48.694;10.160;2023-07-22T08:28:14;2.90;;;1.80;;
2474;SDS011;1248;48.694;10.160;2023-07-22T08:30:41;5.10;;;1.83;;
2474;SDS011;1248;48.694;10.160;2023-07-22T08:33:10;3.30;;;1.80;;
2474;SDS011;1248;48.694;10.160;2023-07-22T08:35:39;4.23;;;2.17;;
2474;SDS011;1248;48.694;10.160;2023-07-22T08:38:07;6.17;;;2.27;;
2474;SDS011;1248;48.694;10.160;2023-07-22T08:40:34;2.60;;;1.70;;
2474;SDS011;1248;48.694;10.160;2023-07-22T08:43:02;4.47;;;2.00;;
2474;SDS011;1248;48.694;10.160;2023-07-22T08:45:31;4.73;;;1.63;;
2474;SDS011;1248;48.694;10.160;2023-07-22T08:48:00;2.13;;;1.60;;
2474;SDS011;1248;48.694;10.160;2023-07-22T08:50:30;2.80;;;1.50;;
2474;SDS011;1248;48.694;10.160;2023-07-22T08:53:01;3.87;;;2.00;;
2474;SDS011;1248;48.694;10.160;2023-07-22T08:55:29;2.93;;;1.70;;
2474;SDS011;1248;48.694;10.160;2023-07-22T08:57:56;3.50;;;1.93;;
2474;SDS011;1248;48.694;10.160;2023-07-22T09:00:23;2.80;;;1.70;;
2474;SDS011;1248;48.694;10.160;2023-07-22T09:02:51;3.50;;;1.90;;
2474;SDS011;1248;48.694;10.160;2023-07-22T09:05:18;2.10;;;1.57;;
2474;SDS011;1248;48.694;10.160;2023-07-22T09:07:46;1.73;;;1.63;;
2474;SDS011;1248;48.694;10.160;2023-07-22T09:10:16;2.50;;;1.87;;
2474;SDS011;1248;48.694;10.160;2023-07-22T09:12:44;5.50;;;2.20;;
2474;SDS011;1248;48.694;10.160;2023-07-22T09:15:12;2.63;;;1.97;;
2474;SDS011;1248;48.694;10.160;2023-07-22T09:17:39;2.20;;;1.57;;
2474;SDS011;1248;48.694;10.160;2023-07-22T09:20:07;3.23;;;1.87;;
2474;SDS011;1248;48.694;10.160;2023-07-22T09:22:34;2.20;;;2.00;;
2474;SDS011;1248;48.694;10.160;2023-07-22T09:25:12;1.90;;;1.50;;
2474;SDS011;1248;48.694;10.160;2023-07-22T09:27:41;2.03;;;1.70;;
2474;SDS011;1248;48.694;10.160;2023-07-22T09:30:19;4.97;;;2.63;;
2474;SDS011;1248;48.694;10.160;2023-07-22T09:32:48;2.90;;;1.83;;
2474;SDS011;1248;48.694;10.160;2023-07-22T09:35:15;2.50;;;1.80;;
2474;SDS011;1248;48.694;10.160;2023-07-22T09:37:42;6.23;;;1.80;;
2474;SDS011;1248;48.694;10.160;2023-07-22T09:40:15;5.30;;;3.20;;
2474;SDS011;1248;48.694;10.160;2023-07-22T09:42:49;2.70;;;2.03;;
2474;SDS011;1248;48.694;10.160;2023-07-22T09:45:17;4.70;;;3.20;;
2474;SDS011;1248;48.694;10.160;2023-07-22T09:47:45;5.40;;;3.07;;
2474;SDS011;1248;48.694;10.160;2023-07-22T09:50:14;4.23;;;2.47;;
2474;SDS011;1248;48.694;10.160;2023-07-22T09:52:47;2.80;;;2.20;;
2474;SDS011;1248;48.694;10.160;2023-07-22T09:55:16;2.90;;;2.30;;
2474;SDS011;1248;48.694;10.160;2023-07-22T09:57:45;4.97;;;4.47;;
2474;SDS011;1248;48.694;10.160;2023-07-22T10:00:14;2.40;;;1.80;;
2474;SDS011;1248;48.694;10.160;2023-07-22T10:02:42;2.80;;;1.87;;
2474;SDS011;1248;48.694;10.160;2023-07-22T10:05:13;4.43;;;1.87;;
2474;SDS011;1248;48.694;10.160;2023-07-22T10:07:42;3.07;;;1.60;;
2474;SDS011;1248;48.694;10.160;2023-07-22T10:10:11;3.37;;;2.27;;
2474;SDS011;1248;48.694;10.160;2023-07-22T10:12:39;2.10;;;1.83;;
2474;SDS011;1248;48.694;10.160;2023-07-22T10:15:07;2.37;;;1.73;;
2474;SDS011;1248;48.694;10.160;2023-07-22T10:17:36;2.63;;;2.00;;
2474;SDS011;1248;48.694;10.160;2023-07-22T10:20:03;2.57;;;1.93;;
2474;SDS011;1248;48.694;10.160;2023-07-22T10:22:34;2.70;;;1.87;;
2474;SDS011;1248;48.694;10.160;2023-07-22T10:25:04;3.83;;;1.90;;
2474;SDS011;1248;48.694;10.160;2023-07-22T10:27:31;3.00;;;1.63;;
2474;SDS011;1248;48.694;10.160;2023-07-22T10:29:59;2.60;;;1.60;;
2474;SDS011;1248;48.694;10.160;2023-07-22T10:32:31;2.10;;;1.80;;
2474;SDS011;1248;48.694;10.160;2023-07-22T10:34:59;2.40;;;1.83;;
2474;SDS011;1248;48.694;10.160;2023-07-22T10:37:29;2.80;;;2.57;;
2474;SDS011;1248;48.694;10.160;2023-07-22T10:39:58;2.83;;;2.23;;
2474;SDS011;1248;48.694;10.160;2023-07-22T10:42:26;3.20;;;1.77;;
2474;SDS011;1248;48.694;10.160;2023-07-22T10:44:53;5.87;;;2.00;;
2474;SDS011;1248;48.694;10.160;2023-07-22T10:50:07;2.27;;;1.93;;
2474;SDS011;1248;48.694;10.160;2023-07-22T10:52:39;3.03;;;1.70;;
2474;SDS011;1248;48.694;10.160;2023-07-22T10:55:14;2.07;;;1.87;;
2474;SDS011;1248;48.694;10.160;2023-07-22T10:57:47;2.30;;;1.60;;
2474;SDS011;1248;48.694;10.160;2023-07-22T11:00:18;2.77;;;1.83;;
2474;SDS011;1248;48.694;10.160;2023-07-22T11:02:47;3.53;;;1.80;;
2474;SDS011;1248;48.694;10.160;2023-07-22T11:05:48;4.23;;;1.63;;
2474;SDS011;1248;48.694;10.160;2023-07-22T11:08:16;3.40;;;2.50;;
2474;SDS011;1248;48.694;10.160;2023-07-22T11:13:28;5.00;;;2.10;;
2474;SDS011;1248;48.694;10.160;2023-07-22T11:15:57;2.63;;;1.83;;
2474;SDS011;1248;48.694;10.160;2023-07-22T11:18:35;3.33;;;1.90;;
2474;SDS011;1248;48.694;10.160;2023-07-22T11:21:09;3.50;;;2.13;;
2474;SDS011;1248;48.694;10.160;2023-07-22T11:23:36;2.80;;;1.60;;
2474;SDS011;1248;48.694;10.160;2023-07-22T11:26:03;3.93;;;2.30;;
2474;SDS011;1248;48.694;10.160;2023-07-22T11:28:31;1.80;;;1.60;;
2474;SDS011;1248;48.694;10.160;2023-07-22T11:30:58;2.50;;;2.00;;
2474;SDS011;1248;48.694;10.160;2023-07-22T11:33:26;2.70;;;1.90;;
2474;SDS011;1248;48.694;10.160;2023-07-22T11:36:05;2.43;;;2.03;;
2474;SDS011;1248;48.694;10.160;2023-07-22T11:38:33;3.50;;;1.90;;
2474;SDS011;1248;48.694;10.160;2023-07-22T11:41:01;2.10;;;1.77;;
2474;SDS011;1248;48.694;10.160;2023-07-22T11:43:28;2.57;;;2.17;;
2474;SDS011;1248;48.694;10.160;2023-07-22T11:45:55;2.40;;;1.90;;
2474;SDS011;1248;48.694;10.160;2023-07-22T11:48:22;2.87;;;2.27;;
2474;SDS011;1248;48.694;10.160;2023-07-22T11:50:49;2.87;;;2.20;;
2474;SDS011;1248;48.694;10.160;2023-07-22T11:53:16;2.17;;;1.60;;
2474;SDS011;1248;48.694;10.160;2023-07-22T11:55:45;2.40;;;1.90;;
2474;SDS011;1248;48.694;10.160;2023-07-22T11:58:12;4.67;;;1.90;;
2474;SDS011;1248;48.694;10.160;2023-07-22T12:00:42;3.27;;;1.83;;
2474;SDS011;1248;48.694;10.160;2023-07-22T12:03:09;1.97;;;1.77;;
2474;SDS011;1248;48.694;10.160;2023-07-22T12:05:36;2.10;;;1.90;;
2474;SDS011;1248;48.694;10.160;2023-07-22T12:08:04;2.73;;;1.90;;
2474;SDS011;1248;48.694;10.160;2023-07-22T12:10:32;6.20;;;2.00;;
2474;SDS011;1248;48.694;10.160;2023-07-22T12:13:01;2.73;;;1.77;;
2474;SDS011;1248;48.694;10.160;2023-07-22T12:15:29;2.93;;;1.70;;
2474;SDS011;1248;48.694;10.160;2023-07-22T12:17:58;2.53;;;2.30;;
2474;SDS011;1248;48.694;10.160;2023-07-22T12:20:27;5.33;;;1.93;;
2474;SDS011;1248;48.694;10.160;2023-07-22T12:22:55;3.87;;;2.10;;
2474;SDS011;1248;48.694;10.160;2023-07-22T12:25:22;3.43;;;1.90;;
2474;SDS011;1248;48.694;10.160;2023-07-22T12:27:50;2.30;;;1.93;;
2474;SDS011;1248;48.694;10.160;2023-07-22T12:30:18;2.53;;;1.80;;
2474;SDS011;1248;48.694;10.160;2023-07-22T12:32:46;3.40;;;2.43;;
2474;SDS011;1248;48.694;10.160;2023-07-22T12:35:13;2.80;;;2.13;;
2474;SDS011;1248;48.694;10.160;2023-07-22T12:37:40;2.43;;;2.03;;
2474;SDS011;1248;48.694;10.160;2023-07-22T12:40:07;2.27;;;1.63;;
2474;SDS011;1248;48.694;10.160;2023-07-22T12:42:36;2.37;;;2.17;;
2474;SDS011;1248;48.694;10.160;2023-07-22T12:45:03;2.90;;;1.83;;
2474;SDS011;1248;48.694;10.160;2023-07-22T12:47:32;3.37;;;2.10;;
2474;SDS011;1248;48.694;10.160;2023-07-22T12:49:59;2.97;;;1.70;;
2474;SDS011;1248;48.694;10.160;2023-07-22T12:52:26;3.00;;;2.13;;
2474;SDS011;1248;48.694;10.160;2023-07-22T12:54:53;3.17;;;2.23;;
2474;SDS011;1248;48.694;10.160;2023-07-22T12:57:20;4.70;;;1.80;;
2474;SDS011;1248;48.694;10.160;2023-07-22T12:59:47;3.30;;;1.60;;
2474;SDS011;1248;48.694;10.160;2023-07-22T13:02:15;2.80;;;1.90;;
2474;SDS011;1248;48.694;10.160;2023-07-22T13:04:44;3.57;;;2.40;;
2474;SDS011;1248;48.694;10.160;2023-07-22T13:07:11;3.33;;;2.00;;
2474;SDS011;1248;48.694;10.160;2023-07-22T13:09:38;2.30;;;2.03;;
2474;SDS011;1248;48.694;10.160;2023-07-22T13:12:06;3.03;;;2.07;;
2474;SDS011;1248;48.694;10.160;2023-07-22T13:14:33;3.03;;;2.10;;
2474;SDS011;1248;48.694;10.160;2023-07-22T13:17:00;3.60;;;2.00;;
2474;SDS011;1248;48.694;10.160;2023-07-22T13:19:27;3.17;;;2.20;;
2474;SDS011;1248;48.694;10.160;2023-07-22T13:21:56;2.63;;;1.77;;
2474;SDS011;1248;48.694;10.160;2023-07-22T13:24:23;3.33;;;2.13;;
2474;SDS011;1248;48.694;10.160;2023-07-22T13:26:50;3.43;;;2.40;;
2474;SDS011;1248;48.694;10.160;2023-07-22T13:29:16;3.57;;;1.83;;
2474;SDS011;1248;48.694;10.160;2023-07-22T13:31:43;4.00;;;2.30;;
2474;SDS011;1248;48.694;10.160;2023-07-22T13:34:10;6.70;;;2.37;;
2474;SDS011;1248;48.694;10.160;2023-07-22T13:36:38;2.97;;;2.23;;
2474;SDS011;1248;48.694;10.160;2023-07-22T13:39:06;5.97;;;2.00;;
2474;SDS011;1248;48.694;10.160;2023-07-22T13:41:33;3.23;;;2.43;;
2474;SDS011;1248;48.694;10.160;2023-07-22T13:44:00;2.90;;;2.10;;
2474;SDS011;1248;48.694;10.160;2023-07-22T13:46:27;3.50;;;2.53;;
2474;SDS011;1248;48.694;10.160;2023-07-22T13:48:54;3.93;;;2.20;;
2474;SDS011;1248;48.694;10.160;2023-07-22T13:51:21;2.90;;;2.10;;
2474;SDS011;1248;48.694;10.160;2023-07-22T13:53:48;2.53;;;2.07;;
2474;SDS011;1248;48.694;10.160;2023-07-22T13:56:18;2.30;;;1.70;;
2474;SDS011;1248;48.694;10.160;2023-07-22T13:58:45;2.50;;;1.90;;
2474;SDS011;1248;48.694;10.160;2023-07-22T14:01:12;2.50;;;2.00;;
2474;SDS011;1248;48.694;10.160;2023-07-22T14:03:40;4.53;;;2.00;;
2474;SDS011;1248;48.694;10.160;2023-07-22T14:06:07;3.00;;;2.53;;
2474;SDS011;1248;48.694;10.160;2023-07-22T14:08:34;4.07;;;2.00;;
2474;SDS011;1248;48.694;10.160;2023-07-22T14:11:01;3.60;;;2.13;;
2474;SDS011;1248;48.694;10.160;2023-07-22T14:13:29;3.93;;;2.00;;
2474;SDS011;1248;48.694;10.160;2023-07-22T14:15:56;3.40;;;2.00;;
2474;SDS011;1248;48.694;10.160;2023-07-22T14:18:23;2.53;;;2.00;;
2474;SDS011;1248;48.694;10.160;2023-07-22T14:20:50;3.03;;;2.40;;
2474;SDS011;1248;48.694;10.160;2023-07-22T14:23:17;3.10;;;1.93;;
2474;SDS011;1248;48.694;10.160;2023-07-22T14:25:44;2.63;;;2.00;;
2474;SDS011;1248;48.694;10.160;2023-07-22T14:28:11;2.60;;;2.20;;
2474;SDS011;1248;48.694;10.160;2023-07-22T14:30:40;3.67;;;2.60;;
2474;SDS011;1248;48.694;10.160;2023-07-22T14:33:07;4.80;;;2.53;;
2474;SDS011;1248;48.694;10.160;2023-07-22T14:35:34;2.77;;;2.50;;
2474;SDS011;1248;48.694;10.160;2023-07-22T14:38:01;2.73;;;2.30;;
2474;SDS011;1248;48.694;10.160;2023-07-22T14:40:28;3.10;;;2.23;;
2474;SDS011;1248;48.694;10.160;2023-07-22T14:42:56;5.73;;;2.27;;
2474;SDS011;1248;48.694;10.160;2023-07-22T14:45:22;3.57;;;2.50;;
2474;SDS011;1248;48.694;10.160;2023-07-22T14:47:51;2.40;;;2.00;;
2474;SDS011;1248;48.694;10.160;2023-07-22T14:50:18;9.77;;;2.63;;
2474;SDS011;1248;48.694;10.160;2023-07-22T14:52:45;3.80;;;2.23;;
2474;SDS011;1248;48.694;10.160;2023-07-22T14:55:12;3.60;;;2.30;;
2474;SDS011;1248;48.694;10.160;2023-07-22T14:57:39;3.17;;;2.60;;
2474;SDS011;1248;48.694;10.160;2023-07-22T15:00:07;4.80;;;2.00;;
2474;SDS011;1248;48.694;10.160;2023-07-22T15:02:36;2.83;;;2.40;;
2474;SDS011;1248;48.694;10.160;2023-07-22T15:05:04;2.73;;;2.20;;
2474;SDS011;1248;48.694;10.160;2023-07-22T15:07:32;4.30;;;2.80;;
2474;SDS011;1248;48.694;10.160;2023-07-22T15:09:59;4.87;;;2.47;;